This is the latest recevied weather packets stored in our database for station/object KJ4RDP-13. If no packets are shown the sender has not sent any weather packets the latest 1 day(s).
| Time | Temp. | Humidity | Pressure | Rain* | Wind** | Luminosity | Snow |
|---|---|---|---|---|---|---|---|
| 1778029796 | 15° C | 77% | 1014.6 hPa | 0 mm | 0 m/s | 0 W/m² | - |
| 1778029496 | 15° C | 78% | 1014.2 hPa | 0 mm | 0 m/s | 0 W/m² | - |
| 1778029191 | 15° C | 78% | 1013.8 hPa | 0 mm | 0 m/s | 0 W/m² | - |
| 1778028889 | 15° C | 75% | 1014.2 hPa | 0 mm | 0.45 m/s, 187° | 0 W/m² | - |
| 1778028584 | 15.56° C | 72% | 1014.2 hPa | 0 mm | 0 m/s | 0 W/m² | - |
| 1778028282 | 16.11° C | 72% | 1014.2 hPa | 0 mm | 0 m/s | 0 W/m² | - |
| 1778027978 | 16.67° C | 70% | 1014.2 hPa | 0 mm | 0 m/s | 0 W/m² | - |
| 1778027675 | 16.67° C | 66% | 1014.2 hPa | 0 mm | 0.45 m/s, 182° | 0 W/m² | - |
| 1778027371 | 17.78° C | 63% | 1013.8 hPa | 0 mm | 0 m/s | 0 W/m² | - |
| 1778027067 | 18.33° C | 61% | 1013.8 hPa | 0 mm | 0 m/s | 0 W/m² | - |
| 1778026763 | 18.33° C | 58% | 1014.2 hPa | 0 mm | 0 m/s | 0 W/m² | - |
| 1778026460 | 18.89° C | 58% | 1014.2 hPa | 0 mm | 0 m/s | 3 W/m² | - |
| 1778026158 | 19.44° C | 56% | 1014.2 hPa | 0 mm | 0.89 m/s, 222° | 5 W/m² | - |
| 1778025855 | 18.89° C | 56% | 1014.2 hPa | 0 mm | 1.34 m/s, 236° | 9 W/m² | - |
| 1778025552 | 19.44° C | 56% | 1014.2 hPa | 0 mm | 1.79 m/s, 74° | 13 W/m² | - |
| 1778025250 | 19.44° C | 55% | 1013.8 hPa | 0 mm | 0.45 m/s, 242° | 13 W/m² | - |
| 1778024946 | 20° C | 54% | 1013.8 hPa | 0 mm | 0 m/s | 17 W/m² | - |
| 1778024644 | 20° C | 55% | 1013.8 hPa | 0 mm | 1.34 m/s, 263° | 21 W/m² | - |
| 1778024340 | 20° C | 54% | 1013.8 hPa | 0 mm | 1.34 m/s, 258° | 29 W/m² | - |
| 1778024038 | 20.56° C | 53% | 1013.8 hPa | 0 mm | 0.89 m/s, 240° | 32 W/m² | - |
| 1778023735 | 20.56° C | 52% | 1014.2 hPa | 0 mm | 2.24 m/s, 242° | 39 W/m² | - |
| 1778023433 | 21.11° C | 51% | 1014.2 hPa | 0 mm | 0 m/s | 52 W/m² | - |
| 1778023130 | 21.11° C | 51% | 1013.8 hPa | 0 mm | 1.34 m/s, 222° | 73 W/m² | - |
| 1778022827 | 21.11° C | 50% | 1013.8 hPa | 0 mm | 1.34 m/s, 260° | 87 W/m² | - |
| 1778022525 | 21.67° C | 49% | 1013.8 hPa | 0 mm | 0 m/s | 101 W/m² | - |
* Rain latest hour (hover to see other rain measurements)
** Current wind speed in m/s (hover to see current wind gust speed)